Time;durP1;ratioP1;P1;durP2;ratioP2;P2;SDS_P1;SDS_P2;PMS_P1;PMS_P2;Temp;Humidity;BMP_temperature;BMP_pressure;BME280_temperature;BME280_humidity;BME280_pressure;Samples;Min_cycle;Max_cycle;Signal;HPM_P1;HPM_P2
2022/02/21 00:00:07;;;;;;;1.60;1.30;;;;;;;2.36;74.18;98057.34;105066;1272;61118;-22
2022/02/21 00:02:43;;;;;;;2.10;1.30;;;;;;;2.06;75.76;98055.27;104686;1272;75568;-24
2022/02/21 00:05:14;;;;;;;2.40;1.90;;;;;;;2.35;75.30;98050.38;104782;1272;75851;-24
2022/02/21 00:07:46;;;;;;;2.20;1.10;;;;;;;2.62;73.99;98051.41;104561;1273;74399;-24
2022/02/21 00:10:34;;;;;;;3.40;1.90;;;;;;;2.55;73.84;98051.88;104892;1271;63267;-22
2022/02/21 00:13:04;;;;;;;2.90;1.50;;;;;;;2.36;74.16;98046.20;105111;1272;61052;-22
2022/02/21 00:15:32;;;;;;;3.10;1.60;;;;;;;2.09;75.29;98039.83;105178;1271;75583;-22
2022/02/21 00:18:01;;;;;;;2.40;1.50;;;;;;;1.83;75.90;98029.59;104800;1271;75779;-22
2022/02/21 00:20:30;;;;;;;2.60;1.40;;;;;;;1.85;76.20;98025.08;104834;1272;74401;-24
2022/02/21 00:23:17;;;;;;;4.50;1.50;;;;;;;2.31;74.77;98021.70;104794;1271;61141;-23
2022/02/21 00:25:47;;;;;;;2.90;1.60;;;;;;;2.33;74.33;98020.35;104833;1273;61139;-24
2022/02/21 00:28:16;;;;;;;4.30;1.50;;;;;;;2.02;75.20;98021.80;104853;1271;75414;-24
2022/02/21 00:30:45;;;;;;;2.50;1.30;;;;;;;1.87;75.38;98018.96;105133;1271;76010;-24
2022/02/21 00:33:14;;;;;;;4.80;2.20;;;;;;;1.69;75.84;98010.63;105134;1271;74680;-24
2022/02/21 00:35:42;;;;;;;6.60;1.90;;;;;;;1.44;76.98;98011.11;104995;1271;61213;-24
2022/02/21 00:38:11;;;;;;;4.40;2.00;;;;;;;1.71;76.18;98007.45;105008;1271;61668;-24
2022/02/21 00:40:39;;;;;;;2.00;1.60;;;;;;;2.03;75.01;98002.59;105008;1271;75709;-24
2022/02/21 00:43:07;;;;;;;4.20;2.30;;;;;;;2.05;73.99;98007.58;105066;1271;75803;-22
2022/02/21 00:45:36;;;;;;;2.50;1.70;;;;;;;1.82;74.69;98002.49;105169;1271;74144;-25
2022/02/21 00:48:05;;;;;;;7.30;2.90;;;;;;;1.50;75.83;98002.35;105133;1271;61190;-24
2022/02/21 00:50:35;;;;;;;8.20;2.70;;;;;;;1.31;76.34;97989.18;104927;1271;61095;-24
2022/02/21 00:53:04;;;;;;;4.60;2.40;;;;;;;1.32;76.29;97979.35;105146;1270;74593;-24
2022/02/21 00:55:36;;;;;;;9.20;3.30;;;;;;;1.71;75.12;97975.80;105151;1271;75071;-24
2022/02/21 00:58:04;;;;;;;5.80;2.30;;;;;;;1.92;73.99;97974.64;104972;1271;74307;-24
2022/02/21 01:00:33;;;;;;;5.40;2.40;;;;;;;1.80;74.21;97965.48;104930;1271;62025;-24
2022/02/21 01:03:01;;;;;;;8.90;2.40;;;;;;;1.58;74.52;97961.69;104756;1271;61140;-24
2022/02/21 01:05:30;;;;;;;4.40;2.40;;;;;;;1.37;75.02;97957.34;104943;1271;75586;-24
2022/02/21 01:07:59;;;;;;;3.00;1.70;;;;;;;1.10;76.18;97954.17;104981;1271;74388;-24
2022/02/21 01:10:29;;;;;;;2.40;1.30;;;;;;;1.18;76.26;97947.34;104895;1272;73509;-23
2022/02/21 01:12:58;;;;;;;6.70;3.20;;;;;;;1.65;74.15;97947.45;105088;1271;62410;-23
2022/02/21 01:15:27;;;;;;;6.50;2.50;;;;;;;1.66;73.98;97943.25;105100;1271;61025;-24
2022/02/21 01:17:56;;;;;;;3.40;2.30;;;;;;;1.58;73.79;97938.42;104898;1271;75337;-24
2022/02/21 01:20:25;;;;;;;6.40;2.10;;;;;;;1.36;74.22;97927.64;104873;1271;76480;-23
2022/02/21 01:22:53;;;;;;;5.20;1.80;;;;;;;1.15;74.93;97923.42;105033;1271;73410;-23
2022/02/21 01:25:21;;;;;;;2.40;0.90;;;;;;;1.01;75.38;97918.30;105121;1271;61319;-23
2022/02/21 01:27:49;;;;;;;2.00;1.50;;;;;;;1.36;74.64;97917.73;105005;1271;61124;-24
2022/02/21 01:30:18;;;;;;;1.80;1.20;;;;;;;1.88;72.91;97915.54;105115;1271;75489;-23
2022/02/21 01:32:46;;;;;;;4.40;1.80;;;;;;;1.91;72.06;97914.61;105113;1271;75024;-24
2022/02/21 01:35:14;;;;;;;3.90;2.10;;;;;;;1.63;72.57;97906.81;105098;1271;73534;-23
2022/02/21 01:37:43;;;;;;;2.80;2.10;;;;;;;1.47;73.08;97897.36;105120;1272;61079;-23
2022/02/21 01:40:12;;;;;;;5.00;1.80;;;;;;;1.34;73.48;97895.91;105004;1271;61180;-23
2022/02/21 01:42:40;;;;;;;2.10;1.40;;;;;;;1.20;74.15;97892.52;105100;1272;73807;-23
2022/02/21 01:45:09;;;;;;;4.20;2.10;;;;;;;1.46;73.70;97885.46;104831;1273;75081;-23
2022/02/21 01:47:37;;;;;;;5.20;1.90;;;;;;;1.79;72.19;97883.02;105141;1273;73233;-23
2022/02/21 01:50:06;;;;;;;2.80;1.90;;;;;;;1.85;71.90;97887.82;105153;1271;61791;-23
2022/02/21 01:52:47;;;;;;;3.90;2.00;;;;;;;1.73;72.12;97888.25;105118;1273;61040;-23
2022/02/21 01:55:15;;;;;;;5.20;1.90;;;;;;;1.55;72.82;97887.61;104868;1272;75737;-23
2022/02/21 01:57:44;;;;;;;4.70;1.90;;;;;;;1.46;72.90;97885.95;104859;1271;75012;-23
2022/02/21 02:00:14;;;;;;;1.50;1.10;;;;;;;1.34;73.33;97880.70;104861;1271;73395;-23
2022/02/21 02:02:45;;;;;;;6.40;2.40;;;;;;;1.69;72.66;97873.73;105051;1274;61065;-23
2022/02/21 02:05:17;;;;;;;1.90;1.20;;;;;;;2.28;70.58;97864.10;105021;1271;61285;-23
2022/02/21 02:07:45;;;;;;;3.60;2.20;;;;;;;2.32;69.56;97863.54;104879;1271;74643;-23
2022/02/21 02:10:14;;;;;;;2.10;1.70;;;;;;;2.12;70.16;97857.83;105103;1271;75741;-23
2022/02/21 02:12:43;;;;;;;3.10;1.60;;;;;;;2.02;70.34;97857.93;105124;1271;74085;-23
2022/02/21 02:15:13;;;;;;;3.60;2.10;;;;;;;1.84;70.66;97856.70;105150;1271;62509;-23
2022/02/21 02:17:41;;;;;;;2.50;1.60;;;;;;;1.69;71.26;97856.33;104777;1272;61083;-23
2022/02/21 02:20:10;;;;;;;2.30;1.40;;;;;;;1.60;71.53;97851.20;105026;1271;73826;-23
2022/02/21 02:22:40;;;;;;;5.10;1.90;;;;;;;1.93;70.95;97846.52;104747;1272;76268;-23
2022/02/21 02:25:11;;;;;;;5.40;2.80;;;;;;;2.27;69.47;97844.48;105013;1273;74602;-23
2022/02/21 02:27:40;;;;;;;2.40;1.50;;;;;;;2.26;69.18;97842.66;105126;1271;61143;-23
2022/02/21 02:30:09;;;;;;;3.00;1.90;;;;;;;2.06;69.74;97847.42;105081;1271;61030;-23
2022/02/21 02:32:37;;;;;;;4.00;1.90;;;;;;;1.95;70.14;97849.52;104808;1272;74587;-23
2022/02/21 02:35:06;;;;;;;5.10;2.00;;;;;;;1.79;70.75;97854.48;104954;1271;76456;-23
2022/02/21 02:37:34;;;;;;;3.20;1.90;;;;;;;1.69;71.26;97850.52;104766;1271;74138;-23
2022/02/21 02:40:03;;;;;;;4.60;1.80;;;;;;;1.92;70.97;97851.38;104928;1271;62578;-23
2022/02/21 02:42:33;;;;;;;2.60;1.80;;;;;;;2.45;69.13;97848.11;105028;1271;61110;-22
2022/02/21 02:45:01;;;;;;;5.60;2.40;;;;;;;2.59;68.19;97837.91;105100;1271;75474;-23
2022/02/21 02:47:30;;;;;;;5.00;2.60;;;;;;;2.40;68.68;97830.30;104934;1271;196958;-23
2022/02/21 02:49:58;;;;;;;5.40;2.30;;;;;;;2.31;68.90;97822.83;105102;1271;74545;-23
2022/02/21 02:52:26;;;;;;;2.40;2.00;;;;;;;2.18;69.36;97825.59;104957;1271;61296;-22
2022/02/21 02:54:55;;;;;;;5.60;2.90;;;;;;;2.02;69.93;97823.71;104963;1271;61135;-22
2022/02/21 02:57:23;;;;;;;3.50;1.90;;;;;;;1.91;70.39;97830.60;105161;1271;75572;-24
2022/02/21 02:59:53;;;;;;;3.10;2.20;;;;;;;1.86;70.52;97824.23;105158;1271;75695;-23
2022/02/21 03:02:21;;;;;;;4.50;2.50;;;;;;;2.32;69.71;97820.58;105087;1271;74472;-22
2022/02/21 03:04:49;;;;;;;5.10;3.20;;;;;;;2.74;67.91;97820.42;105112;1271;61128;-23
2022/02/21 03:07:18;;;;;;;2.70;1.70;;;;;;;2.78;67.66;97819.17;104945;1271;61075;-24
2022/02/21 03:09:46;;;;;;;6.20;3.20;;;;;;;2.56;67.97;97815.35;105053;1271;75572;-24
2022/02/21 03:12:15;;;;;;;4.20;2.20;;;;;;;2.34;68.71;97818.38;105089;1271;74883;-24
2022/02/21 03:14:43;;;;;;;3.90;2.20;;;;;;;2.21;69.18;97821.44;105138;1273;73337;-24
2022/02/21 03:17:12;;;;;;;3.40;2.30;;;;;;;2.10;69.47;97815.34;105087;1271;61239;-24
2022/02/21 03:19:40;;;;;;;3.40;1.90;;;;;;;1.98;69.99;97813.55;105118;1273;62686;-23
2022/02/21 03:22:08;;;;;;;2.90;1.70;;;;;;;1.94;70.26;97809.00;104956;1271;75269;-23
2022/02/21 03:24:36;;;;;;;5.50;3.00;;;;;;;2.34;69.28;97799.88;104814;1271;75974;-23
2022/02/21 03:27:05;;;;;;;10.00;3.60;;;;;;;2.64;67.99;97797.64;104816;1273;74155;-23
2022/02/21 03:29:33;;;;;;;7.70;3.20;;;;;;;2.76;67.48;97795.98;105134;1271;62053;-23
2022/02/21 03:32:01;;;;;;;4.60;2.40;;;;;;;2.65;67.67;97790.56;104930;1271;62235;-23
2022/02/21 03:34:32;;;;;;;5.60;2.80;;;;;;;2.50;68.07;97784.36;104860;1271;75587;-23
2022/02/21 03:37:01;;;;;;;5.70;3.10;;;;;;;2.32;68.74;97782.15;104984;1271;75083;-24
2022/02/21 03:39:29;;;;;;;8.00;3.00;;;;;;;2.22;69.18;97779.24;104747;1272;72931;-23
2022/02/21 03:41:58;;;;;;;11.90;3.30;;;;;;;2.16;69.24;97772.83;105050;1271;61043;-23
2022/02/21 03:44:26;;;;;;;7.00;2.80;;;;;;;2.24;69.36;97768.48;105135;1272;61106;-23
2022/02/21 03:46:55;;;;;;;4.60;2.50;;;;;;;2.77;67.75;97767.13;105124;1271;74548;-23
2022/02/21 03:49:23;;;;;;;2.20;1.90;;;;;;;2.84;66.98;97759.08;105147;1271;75212;-22
2022/02/21 03:51:52;;;;;;;5.10;3.00;;;;;;;2.79;67.09;97755.30;105154;1271;73532;-23
2022/02/21 03:54:21;;;;;;;4.60;3.30;;;;;;;2.55;67.86;97749.61;105109;1271;61121;-23
2022/02/21 03:56:49;;;;;;;6.90;3.00;;;;;;;2.53;67.92;97744.97;105103;1271;61077;-24
2022/02/21 03:59:17;;;;;;;7.70;3.40;;;;;;;2.47;67.97;97733.20;105108;1271;75486;-23
2022/02/21 04:01:46;;;;;;;5.10;2.70;;;;;;;2.39;68.09;97725.86;105042;1271;75168;-23
2022/02/21 04:04:14;;;;;;;2.70;2.00;;;;;;;2.30;68.46;97729.73;104996;1273;74444;-23
2022/02/21 04:06:42;;;;;;;5.50;3.00;;;;;;;2.52;67.62;97723.09;105111;1271;61043;-24
2022/02/21 04:09:12;;;;;;;3.30;1.90;;;;;;;3.09;65.80;97725.30;105074;1271;61062;-24
2022/02/21 04:11:41;;;;;;;6.20;2.60;;;;;;;3.13;64.99;97724.79;105084;1271;75577;-23
2022/02/21 04:14:09;;;;;;;3.00;2.00;;;;;;;3.06;65.17;97723.94;105138;1274;76079;-23
2022/02/21 04:16:38;;;;;;;1.80;1.30;;;;;;;2.96;65.41;97720.70;105130;1271;74156;-24
2022/02/21 04:19:06;;;;;;;3.00;1.50;;;;;;;2.91;65.69;97714.56;105100;1271;61376;-24
2022/02/21 04:21:36;;;;;;;3.90;2.00;;;;;;;2.83;65.92;97714.44;104969;1271;61035;-23
2022/02/21 04:24:04;;;;;;;4.40;2.00;;;;;;;2.71;66.59;97710.79;105085;1271;74676;-24
2022/02/21 04:26:33;;;;;;;2.40;1.80;;;;;;;2.65;66.67;97699.92;105115;1271;75208;-22
2022/02/21 04:29:01;;;;;;;4.40;2.20;;;;;;;2.55;67.00;97701.83;105108;1274;74307;-21
2022/02/21 04:31:30;;;;;;;6.10;2.20;;;;;;;2.54;67.14;97694.70;105145;1271;61029;-22
2022/02/21 04:33:58;;;;;;;3.50;2.10;;;;;;;2.95;65.90;97697.15;105086;1271;61024;-22
2022/02/21 04:36:28;;;;;;;2.50;1.40;;;;;;;3.39;64.39;97691.60;104926;1274;74626;-22
2022/02/21 04:38:57;;;;;;;6.70;2.00;;;;;;;3.50;63.79;97682.34;105088;1271;75964;-22
2022/02/21 04:41:25;;;;;;;3.40;1.60;;;;;;;3.39;63.86;97685.40;105145;1271;73216;-22
2022/02/21 04:43:54;;;;;;;4.20;2.20;;;;;;;3.26;64.36;97680.52;105131;1271;61162;-23
2022/02/21 04:46:22;;;;;;;1.80;1.20;;;;;;;3.18;64.27;97671.11;105157;1271;61164;-22
2022/02/21 04:48:50;;;;;;;7.80;2.40;;;;;;;2.94;65.06;97671.48;104912;1271;74296;-22
2022/02/21 04:51:19;;;;;;;2.70;1.80;;;;;;;2.88;65.06;97670.54;104747;1274;75032;-22
2022/02/21 04:53:47;;;;;;;3.50;2.50;;;;;;;2.78;65.53;97667.81;105056;1271;74368;-22
2022/02/21 04:56:16;;;;;;;4.70;1.60;;;;;;;2.76;65.80;97664.72;105052;1272;61098;-23
2022/02/21 04:58:44;;;;;;;2.10;1.50;;;;;;;2.65;66.13;97662.19;105141;1271;60997;-22
2022/02/21 05:01:12;;;;;;;4.00;1.90;;;;;;;2.65;66.07;97656.94;105145;1271;75504;-22
2022/02/21 05:03:41;;;;;;;2.90;2.00;;;;;;;2.61;66.20;97647.27;105139;1272;74838;-22
2022/02/21 05:06:10;;;;;;;4.80;2.20;;;;;;;2.94;65.52;97647.63;105045;1271;72854;-22
2022/02/21 05:08:39;;;;;;;2.80;1.90;;;;;;;3.26;64.22;97649.27;104970;1271;61017;-23
2022/02/21 05:11:07;;;;;;;4.60;1.40;;;;;;;3.36;63.80;97642.72;105149;1271;61987;-22
2022/02/21 05:13:39;;;;;;;2.90;1.70;;;;;;;3.28;63.95;97648.98;105153;1271;75549;-22
2022/02/21 05:16:08;;;;;;;3.50;1.80;;;;;;;3.06;64.85;97647.30;105121;1271;75997;-22
2022/02/21 05:18:36;;;;;;;2.60;1.90;;;;;;;2.97;65.14;97647.98;105132;1271;74340;-22
2022/02/21 05:21:05;;;;;;;5.90;2.50;;;;;;;2.85;65.49;97639.19;105118;1271;61117;-22
2022/02/21 05:23:33;;;;;;;3.20;1.80;;;;;;;2.74;65.96;97645.83;105101;1271;61394;-22
2022/02/21 05:26:02;;;;;;;5.30;2.70;;;;;;;2.67;66.33;97636.52;105124;1271;75525;-22
2022/02/21 05:28:31;;;;;;;3.10;1.80;;;;;;;2.62;66.53;97635.90;104952;1271;75787;-22
2022/02/21 05:30:59;;;;;;;2.20;1.30;;;;;;;2.60;66.70;97636.84;104783;1271;74159;-23
2022/02/21 05:33:30;;;;;;;3.50;1.40;;;;;;;2.99;65.89;97639.56;104848;1271;61170;-22
2022/02/21 05:35:58;;;;;;;3.50;2.00;;;;;;;3.28;64.92;97640.39;104943;1271;62030;-23
2022/02/21 05:38:27;;;;;;;2.10;1.60;;;;;;;3.26;64.44;97634.86;105039;1271;73560;-23
2022/02/21 05:40:55;;;;;;;4.00;2.00;;;;;;;3.17;64.71;97632.59;105117;1271;76080;-22
2022/02/21 05:43:23;;;;;;;6.60;2.50;;;;;;;3.07;65.21;97629.25;104944;1271;74227;-24
2022/02/21 05:45:52;;;;;;;3.80;2.10;;;;;;;3.09;64.99;97632.30;104873;1271;60994;-25
2022/02/21 05:48:20;;;;;;;6.00;1.60;;;;;;;2.98;65.31;97624.73;104817;1271;61143;-25
2022/02/21 05:50:49;;;;;;;5.70;2.70;;;;;;;2.93;65.54;97620.14;104866;1271;75548;-24
2022/02/21 05:53:18;;;;;;;3.30;1.80;;;;;;;2.94;65.80;97617.15;105136;1271;74987;-24
2022/02/21 05:55:46;;;;;;;2.60;1.70;;;;;;;2.94;65.68;97613.15;104979;1271;74552;-24
2022/02/21 05:58:14;;;;;;;2.90;1.40;;;;;;;2.96;65.60;97612.20;105086;1271;61145;-24
2022/02/21 06:00:46;;;;;;;4.50;1.80;;;;;;;3.22;65.11;97608.77;105136;1274;61025;-25
2022/02/21 06:03:17;;;;;;;5.00;1.50;;;;;;;3.79;63.18;97614.11;105133;1271;76349;-25
2022/02/21 06:05:46;;;;;;;19.30;2.20;;;;;;;3.96;62.09;97607.30;105182;1271;75975;-24
2022/02/21 06:08:15;;;;;;;3.20;1.90;;;;;;;3.98;62.11;97614.88;105152;1271;73790;-25
2022/02/21 06:10:43;;;;;;;3.10;2.00;;;;;;;3.88;62.32;97616.71;105081;1271;62035;-26
2022/02/21 06:13:11;;;;;;;3.80;1.90;;;;;;;3.71;62.65;97614.02;104924;1271;60997;-23
2022/02/21 06:15:45;;;;;;;5.00;2.50;;;;;;;3.56;63.22;97609.32;105003;1271;74085;-23
2022/02/21 06:18:20;;;;;;;8.30;2.40;;;;;;;3.48;63.52;97605.62;104711;1272;75988;-23
2022/02/21 06:20:49;;;;;;;1.90;1.70;;;;;;;3.49;63.27;97604.54;104879;1271;74439;-23
2022/02/21 06:23:17;;;;;;;3.00;2.00;;;;;;;3.50;63.28;97601.89;104806;1271;61154;-23
2022/02/21 06:25:46;;;;;;;4.40;2.80;;;;;;;3.50;63.22;97601.55;105050;1271;61883;-24
2022/02/21 06:28:14;;;;;;;6.40;2.10;;;;;;;3.50;63.27;97596.38;104973;1274;75804;-23
2022/02/21 06:30:43;;;;;;;5.60;1.80;;;;;;;3.45;63.30;97591.60;104791;1271;75998;-23
2022/02/21 06:33:12;;;;;;;8.10;1.80;;;;;;;3.45;63.21;97595.92;104793;1272;74182;-23
2022/02/21 06:35:42;;;;;;;3.30;1.90;;;;;;;3.40;63.14;97584.77;104883;1271;61081;-23
2022/02/21 06:38:11;;;;;;;4.60;1.60;;;;;;;3.45;63.08;97590.42;104846;1271;61184;-23
2022/02/21 06:40:39;;;;;;;8.20;3.20;;;;;;;3.47;63.21;97593.16;104920;1274;74120;-23
2022/02/21 06:43:07;;;;;;;8.40;2.70;;;;;;;3.45;62.99;97587.34;105065;1271;76020;-23
2022/02/21 06:45:36;;;;;;;3.90;2.50;;;;;;;3.50;63.11;97590.06;105125;1271;73545;-23
2022/02/21 06:48:05;;;;;;;5.10;2.40;;;;;;;3.57;62.81;97585.92;105091;1273;61387;-23
2022/02/21 06:50:33;;;;;;;2.00;1.50;;;;;;;3.55;62.86;97582.98;105009;1271;61130;-23
2022/02/21 06:53:01;;;;;;;4.30;2.30;;;;;;;3.57;62.91;97579.87;104879;1271;75501;-23
2022/02/21 06:55:30;;;;;;;3.90;1.90;;;;;;;3.61;62.92;97575.14;104772;1271;73894;-23
2022/02/21 06:57:58;;;;;;;4.90;2.10;;;;;;;3.65;62.57;97572.94;105049;1271;74385;-23
2022/02/21 07:00:26;;;;;;;3.30;2.10;;;;;;;3.69;62.64;97573.65;105146;1271;61004;-23
2022/02/21 07:02:55;;;;;;;2.50;2.10;;;;;;;3.73;62.56;97563.91;105127;1271;61229;-23
2022/02/21 07:05:24;;;;;;;9.20;4.40;;;;;;;3.83;62.30;97563.15;105129;1271;74520;-24
2022/02/21 07:07:52;;;;;;;6.80;4.40;;;;;;;3.82;62.16;97565.60;105143;1271;76215;-23
2022/02/21 07:10:20;;;;;;;4.00;2.80;;;;;;;3.90;62.17;97560.05;105104;1271;74355;-23
2022/02/21 07:12:51;;;;;;;5.70;3.20;;;;;;;3.94;61.98;97558.23;105125;1271;61144;-23
2022/02/21 07:15:19;;;;;;;5.30;2.40;;;;;;;3.97;61.64;97547.45;105172;1271;62061;-23
2022/02/21 07:17:47;;;;;;;6.00;2.90;;;;;;;3.97;61.90;97545.89;104875;1271;75493;-24
2022/02/21 07:20:16;;;;;;;3.20;2.30;;;;;;;4.01;61.46;97541.83;104891;1271;76178;-24
2022/02/21 07:22:45;;;;;;;7.80;2.90;;;;;;;4.09;61.62;97535.56;104876;1271;74448;-22
2022/02/21 07:25:15;;;;;;;6.60;2.50;;;;;;;4.12;61.30;97527.95;104681;1271;61356;-22
2022/02/21 07:27:47;;;;;;;4.70;2.60;;;;;;;4.17;61.34;97520.83;104684;1271;61516;-22
2022/02/21 07:30:16;;;;;;;4.70;2.50;;;;;;;4.23;61.29;97512.67;104669;1273;74127;-23
2022/02/21 07:32:46;;;;;;;3.40;2.10;;;;;;;4.22;61.29;97519.27;104965;1271;76020;-23
2022/02/21 07:35:15;;;;;;;3.30;1.90;;;;;;;4.24;61.35;97517.38;105138;1271;75498;-23
2022/02/21 07:37:43;;;;;;;6.60;3.20;;;;;;;4.28;61.12;97508.95;105076;1273;61029;-23
2022/02/21 07:40:12;;;;;;;3.60;2.00;;;;;;;4.28;60.85;97517.91;105143;1271;61016;-22
2022/02/21 07:42:52;;;;;;;5.60;2.50;;;;;;;4.34;60.63;97511.08;105145;1271;74062;-22
2022/02/21 07:45:21;;;;;;;5.10;2.60;;;;;;;4.45;60.54;97509.36;104981;1272;76195;-22
2022/02/21 07:47:57;;;;;;;3.60;2.40;;;;;;;4.51;60.02;97506.77;105135;1271;74627;-22
2022/02/21 07:50:28;;;;;;;3.30;2.30;;;;;;;4.75;59.67;97498.36;105096;1272;61074;-22
2022/02/21 07:52:57;;;;;;;1.80;1.60;;;;;;;5.06;58.94;97497.52;104982;1273;61128;-22
2022/02/21 07:55:26;;;;;;;4.00;1.80;;;;;;;5.33;58.47;97495.59;104881;1273;75432;-23
2022/02/21 07:57:57;;;;;;;8.00;3.70;;;;;;;5.46;57.61;97492.44;104826;1271;74740;-23
2022/02/21 08:00:26;;;;;;;5.00;2.60;;;;;;;5.46;57.51;97485.19;104818;1271;74407;-23
2022/02/21 08:02:54;;;;;;;6.10;3.20;;;;;;;5.47;57.81;97488.75;104834;1271;61279;-22
2022/02/21 08:05:38;;;;;;;4.90;3.80;;;;;;;5.52;57.62;97488.13;104773;1271;61041;-23
2022/02/21 08:08:12;;;;;;;7.30;5.00;;;;;;;5.57;57.53;97483.45;104748;1271;73544;-22
2022/02/21 08:10:41;;;;;;;11.70;6.80;;;;;;;5.56;57.42;97479.41;104734;1271;75969;-22
2022/02/21 08:13:09;;;;;;;5.70;2.80;;;;;;;5.64;57.40;97475.23;104876;1272;74663;-22
2022/02/21 08:15:38;;;;;;;2.10;1.60;;;;;;;5.64;56.89;97462.55;105113;1271;61027;-22
2022/02/21 08:18:08;;;;;;;3.60;2.00;;;;;;;5.73;56.88;97462.23;105106;1273;61114;-22
2022/02/21 08:20:37;;;;;;;2.20;1.60;;;;;;;5.71;56.85;97463.84;105161;1271;74065;-23
2022/02/21 08:23:05;;;;;;;3.80;1.90;;;;;;;5.73;56.99;97465.21;105154;1271;74884;-23
2022/02/21 08:25:35;;;;;;;9.40;2.40;;;;;;;5.75;56.81;97462.44;105087;1271;74245;-22
2022/02/21 08:28:04;;;;;;;2.90;2.10;;;;;;;5.71;57.32;97464.52;104979;1271;61063;-23
2022/02/21 08:30:32;;;;;;;3.30;2.50;;;;;;;5.74;57.25;97464.59;105008;1271;61043;-22
2022/02/21 08:33:00;;;;;;;7.90;2.70;;;;;;;5.80;57.45;97451.17;105124;1271;74593;-22
2022/02/21 08:35:29;;;;;;;3.00;2.20;;;;;;;5.80;57.06;97461.14;105128;1271;75986;-22
2022/02/21 08:37:59;;;;;;;3.40;1.90;;;;;;;5.75;57.27;97459.73;104817;1271;74240;-22
2022/02/21 08:40:32;;;;;;;3.40;1.80;;;;;;;5.75;57.44;97459.13;104784;1271;61093;-22
2022/02/21 08:43:00;;;;;;;5.60;2.10;;;;;;;5.73;57.75;97459.36;104780;1271;61040;-22
2022/02/21 08:45:29;;;;;;;3.80;1.90;;;;;;;5.70;57.85;97463.21;104888;1271;75480;-22
2022/02/21 08:47:57;;;;;;;1.60;1.30;;;;;;;5.82;57.68;97451.34;105121;1271;72724;-22
2022/02/21 08:50:26;;;;;;;4.20;2.50;;;;;;;5.93;57.70;97458.48;105137;1271;74214;-22
2022/02/21 08:52:54;;;;;;;4.00;2.40;;;;;;;5.91;57.72;97455.42;105004;1271;61876;-22
2022/02/21 08:55:25;;;;;;;1.70;1.10;;;;;;;5.94;57.62;97454.28;104923;1271;61183;-22
2022/02/21 08:57:54;;;;;;;2.60;1.90;;;;;;;5.97;57.79;97455.02;104972;1273;75330;-23
2022/02/21 09:00:22;;;;;;;2.80;1.50;;;;;;;6.01;57.86;97446.05;104944;1271;75948;-22
2022/02/21 09:02:57;;;;;;;3.20;1.90;;;;;;;6.04;57.73;97448.80;104936;1271;74252;-23
2022/02/21 09:05:35;;;;;;;2.90;2.00;;;;;;;6.00;57.97;97454.61;104864;1271;60984;-23
2022/02/21 09:08:04;;;;;;;2.90;1.90;;;;;;;6.01;57.98;97452.76;104791;1271;61126;-25
2022/02/21 09:10:33;;;;;;;3.10;2.10;;;;;;;6.05;57.93;97451.60;104645;1272;72868;-24
2022/02/21 09:13:01;;;;;;;3.30;1.90;;;;;;;6.07;57.85;97444.56;104828;1271;75174;-24
2022/02/21 09:15:30;;;;;;;4.60;2.30;;;;;;;6.14;58.10;97446.73;104844;1271;72459;-25
2022/02/21 09:18:02;;;;;;;3.60;1.50;;;;;;;6.09;58.31;97446.63;104837;1271;61020;-24
2022/02/21 09:20:31;;;;;;;1.70;1.40;;;;;;;6.06;58.40;97448.37;105033;1271;61362;-24
2022/02/21 09:22:59;;;;;;;3.20;1.80;;;;;;;6.02;58.66;97435.33;105134;1271;72814;-22
2022/02/21 09:25:29;;;;;;;5.50;3.00;;;;;;;6.02;58.83;97436.49;105135;1271;75951;-23
2022/02/21 09:27:58;;;;;;;3.30;2.00;;;;;;;6.01;58.96;97430.61;105070;1271;75015;-23
2022/02/21 09:30:27;;;;;;;8.10;2.90;;;;;;;6.02;59.24;97431.85;105084;1271;61074;-22
2022/02/21 09:32:55;;;;;;;5.20;2.40;;;;;;;6.00;59.02;97420.70;104970;1271;61089;-22
2022/02/21 09:35:24;;;;;;;5.20;3.00;;;;;;;6.04;59.07;97424.95;105105;1271;75813;-23
2022/02/21 09:37:53;;;;;;;3.60;1.70;;;;;;;6.00;59.27;97429.15;105113;1271;75966;-25
2022/02/21 09:40:21;;;;;;;2.60;2.40;;;;;;;6.06;59.29;97415.89;105117;1271;72395;-23
2022/02/21 09:42:49;;;;;;;6.50;3.50;;;;;;;6.13;59.24;97422.72;105007;1271;61143;-24
2022/02/21 09:45:18;;;;;;;4.20;2.10;;;;;;;6.17;59.12;97428.17;104790;1271;61048;-22
2022/02/21 09:47:50;;;;;;;4.80;2.70;;;;;;;6.23;59.17;97427.48;104991;1271;75419;-22
2022/02/21 09:50:39;;;;;;;3.60;2.40;;;;;;;6.27;59.22;97419.16;105081;1271;75889;-23
2022/02/21 09:53:08;;;;;;;4.20;2.60;;;;;;;6.32;59.37;97416.20;104978;1273;73170;-23
2022/02/21 09:55:36;;;;;;;4.90;3.30;;;;;;;6.27;59.94;97417.08;104829;1271;61233;-22
2022/02/21 09:58:05;;;;;;;3.30;1.90;;;;;;;6.28;60.22;97418.41;105115;1271;60994;-22
2022/02/21 10:00:34;;;;;;;4.00;2.80;;;;;;;6.36;60.35;97423.70;105156;1271;75463;-23
2022/02/21 10:03:03;;;;;;;3.30;2.10;;;;;;;6.32;61.18;97416.16;105174;1271;75973;-23
2022/02/21 10:05:32;;;;;;;4.00;3.20;;;;;;;6.36;60.92;97421.11;105095;1271;73202;-22
2022/02/21 10:08:07;;;;;;;4.30;2.70;;;;;;;6.42;60.08;97413.48;105146;1271;61117;-23
2022/02/21 10:10:38;;;;;;;3.40;2.20;;;;;;;6.44;60.40;97405.61;104942;1271;61655;-23
2022/02/21 10:13:06;;;;;;;6.10;3.00;;;;;;;6.48;60.10;97424.00;104871;1271;75335;-22
2022/02/21 10:15:36;;;;;;;4.10;2.70;;;;;;;6.48;60.24;97411.45;105051;1271;74810;-22
2022/02/21 10:18:22;;;;;;;4.10;2.40;;;;;;;6.45;60.20;97397.63;105018;1271;73460;-24
2022/02/21 10:20:59;;;;;;;9.10;1.80;;;;;;;6.55;60.13;97419.74;104817;1272;61117;-23
2022/02/21 10:23:31;;;;;;;3.70;1.90;;;;;;;6.56;60.62;97421.43;105010;1271;62157;-23
2022/02/21 10:26:04;;;;;;;4.30;3.20;;;;;;;6.55;61.19;97420.32;104898;1271;74093;-23
2022/02/21 10:28:37;;;;;;;3.50;2.60;;;;;;;6.44;61.54;97410.13;105056;1271;76020;-23
2022/02/21 10:31:23;;;;;;;4.60;2.90;;;;;;;6.39;62.45;97412.59;104745;1274;74319;-23
2022/02/21 10:34:06;;;;;;;5.40;2.80;;;;;;;6.36;62.81;97393.92;104797;1271;61140;-23
2022/02/21 10:36:39;;;;;;;2.50;2.00;;;;;;;6.21;63.53;97389.52;104816;1271;61054;-23
2022/02/21 10:39:18;;;;;;;3.50;2.40;;;;;;;6.29;63.49;97390.04;104819;1271;75566;-23
2022/02/21 10:41:54;;;;;;;3.50;2.10;;;;;;;6.33;63.02;97384.85;104839;1271;74992;-23
2022/02/21 10:44:31;;;;;;;2.10;1.80;;;;;;;6.39;62.55;97386.00;105021;1271;73287;-23
2022/02/21 10:47:13;;;;;;;3.10;2.20;;;;;;;6.43;61.95;97380.87;104780;1272;61633;-23
2022/02/21 10:49:53;;;;;;;4.50;2.80;;;;;;;6.54;61.24;97373.83;105002;1271;61082;-23
2022/02/21 10:52:24;;;;;;;4.90;3.00;;;;;;;6.64;60.39;97366.70;104819;1271;73960;-23
2022/02/21 10:54:53;;;;;;;2.80;1.90;;;;;;;6.72;59.71;97370.63;104764;1272;75439;-23
2022/02/21 10:57:24;;;;;;;7.00;2.60;;;;;;;6.82;59.37;97378.22;104874;1271;74605;-23
2022/02/21 10:59:53;;;;;;;2.60;1.90;;;;;;;6.87;59.08;97360.30;105121;1271;61093;-23
2022/02/21 11:02:22;;;;;;;5.30;3.40;;;;;;;6.94;59.06;97368.41;105096;1271;61100;-23
2022/02/21 11:04:50;;;;;;;3.40;2.20;;;;;;;6.92;59.54;97364.80;105148;1271;74069;-23
2022/02/21 11:07:19;;;;;;;4.10;2.10;;;;;;;6.89;59.78;97361.11;104868;1273;74997;-23
2022/02/21 11:09:48;;;;;;;3.50;2.30;;;;;;;6.88;60.26;97365.91;104840;1271;72499;-24
2022/02/21 11:12:17;;;;;;;4.40;2.20;;;;;;;6.78;60.44;97356.70;104772;1272;62440;-23
2022/02/21 11:14:46;;;;;;;4.80;3.10;;;;;;;6.80;60.78;97356.44;104805;1271;61811;-24
2022/02/21 11:17:14;;;;;;;4.10;2.00;;;;;;;6.76;61.28;97358.54;104957;1271;75750;-24
2022/02/21 11:19:43;;;;;;;3.60;2.50;;;;;;;6.71;62.01;97364.02;104902;1271;74995;-24
2022/02/21 11:22:12;;;;;;;3.80;2.50;;;;;;;6.65;62.40;97355.57;104847;1271;74468;-24
2022/02/21 11:24:53;;;;;;;5.60;3.10;;;;;;;6.58;63.67;97361.05;104809;1272;60969;-22
2022/02/21 11:27:38;;;;;;;4.60;3.50;;;;;;;6.57;64.45;97347.87;104618;1272;61770;-22
2022/02/21 11:30:25;;;;;;;3.60;2.30;;;;;;;7.05;63.22;97359.17;104720;1271;74460;-22
2022/02/21 11:33:05;;;;;;;3.30;2.00;;;;;;;7.17;63.36;97361.96;105091;1271;74423;-23
2022/02/21 11:35:35;;;;;;;3.50;2.30;;;;;;;7.11;63.90;97367.92;104820;1271;74471;-22
2022/02/21 11:38:25;;;;;;;3.60;2.50;;;;;;;7.07;63.33;97362.45;105105;1271;61097;-22
2022/02/21 11:40:55;;;;;;;4.70;2.60;;;;;;;6.91;63.96;97357.18;105097;1271;61236;-22
2022/02/21 11:43:34;;;;;;;6.10;3.20;;;;;;;6.79;64.27;97361.38;105084;1271;75339;-22
2022/02/21 11:46:25;;;;;;;8.90;3.10;;;;;;;6.67;64.57;97353.16;105095;1273;76099;-22